createdAt,value
2018-08-23T00:01:06.224Z,736.67
2018-08-23T00:03:08.246Z,722.23
2018-08-23T00:05:10.560Z,718.42
2018-08-23T00:07:12.549Z,730.63
2018-08-23T00:09:14.574Z,713.65
2018-08-23T00:11:16.605Z,703.27
2018-08-23T00:13:18.578Z,704.23
2018-08-23T00:15:20.601Z,689.55
2018-08-23T00:17:22.610Z,691.92
2018-08-23T00:19:24.628Z,696.37
2018-08-23T00:21:26.623Z,662.27
2018-08-23T00:23:28.590Z,682.23
2018-08-23T00:25:30.610Z,675.30
2018-08-23T00:27:32.604Z,657.90
2018-08-23T00:29:34.572Z,638.03
2018-08-23T00:31:36.603Z,643.77
2018-08-23T00:33:38.590Z,648.83
2018-08-23T00:35:40.627Z,617.20
2018-08-23T00:37:42.646Z,644.10
2018-08-23T00:39:44.643Z,654.85
2018-08-23T00:41:46.672Z,645.67
2018-08-23T00:43:48.924Z,653.80
2018-08-23T00:45:50.923Z,636.08
2018-08-23T00:47:52.887Z,630.25
2018-08-23T00:49:54.919Z,643.27
2018-08-23T00:51:56.898Z,633.05
2018-08-23T00:53:58.906Z,603.85
2018-08-23T00:56:00.927Z,628.62
2018-08-23T00:58:02.918Z,620.17
2018-08-23T01:00:04.921Z,611.28
2018-08-23T01:02:06.956Z,616.33
2018-08-23T01:04:08.975Z,607.25
2018-08-23T01:06:10.953Z,598.40
2018-08-23T01:08:12.988Z,603.75
2018-08-23T01:10:14.971Z,595.17
2018-08-23T01:12:16.942Z,593.33
2018-08-23T01:14:18.976Z,599.65
2018-08-23T01:16:20.956Z,576.27
2018-08-23T01:18:22.952Z,586.30
2018-08-23T01:20:24.985Z,605.33
2018-08-23T01:22:27.006Z,577.50
2018-08-23T01:24:28.995Z,574.12
2018-08-23T01:26:30.982Z,576.27
2018-08-23T01:28:32.976Z,567.30
2018-08-23T01:30:34.960Z,567.60
2018-08-23T01:32:36.971Z,561.77
2018-08-23T01:34:38.950Z,558.05
2018-08-23T01:36:40.960Z,563.83
2018-08-23T01:38:42.984Z,553.95
2018-08-23T01:40:44.980Z,543.55
2018-08-23T01:42:46.951Z,553.20
2018-08-23T01:44:48.952Z,553.73
2018-08-23T01:46:50.974Z,545.38
2018-08-23T01:48:52.967Z,553.12
2018-08-23T01:50:54.986Z,539.30
2018-08-23T01:52:56.984Z,549.73
2018-08-23T01:54:58.966Z,535.50
2018-08-23T01:57:00.992Z,529.10
2018-08-23T01:59:02.982Z,529.70
2018-08-23T02:01:05.012Z,517.03
2018-08-23T02:03:06.997Z,520.92
2018-08-23T02:05:09.010Z,516.75
2018-08-23T02:07:11.028Z,516.42
2018-08-23T02:09:13.016Z,503.12
2018-08-23T02:11:14.994Z,494.77
2018-08-23T02:13:17.002Z,504.48
2018-08-23T02:15:18.982Z,493.73
2018-08-23T02:17:20.966Z,477.88
2018-08-23T02:19:22.996Z,480.60
2018-08-23T02:21:24.980Z,477.82
2018-08-23T02:23:27.006Z,475.22
2018-08-23T02:25:28.986Z,478.68
2018-08-23T02:27:31.020Z,481.40
2018-08-23T02:29:33.048Z,467.98
2018-08-23T02:31:35.058Z,463.93
2018-08-23T02:33:37.088Z,475.53
2018-08-23T02:35:39.086Z,482.68
2018-08-23T02:37:41.052Z,453.35
2018-08-23T02:39:43.080Z,463.55
2018-08-23T02:41:45.066Z,470.20
2018-08-23T02:43:47.123Z,463.57
2018-08-23T02:45:49.106Z,455.70
2018-08-23T02:47:51.096Z,450.55
2018-08-23T02:49:53.120Z,448.80
2018-08-23T02:51:55.148Z,437.55
2018-08-23T02:53:57.172Z,441.55
2018-08-23T02:55:59.156Z,450.68
2018-08-23T02:58:01.176Z,445.55
2018-08-23T03:00:03.151Z,439.05
2018-08-23T03:02:05.164Z,437.88
2018-08-23T03:04:07.145Z,436.47
2018-08-23T03:06:09.152Z,435.87
2018-08-23T03:08:11.136Z,439.00
2018-08-23T03:10:13.154Z,439.87
2018-08-23T03:12:15.178Z,436.60
2018-08-23T03:14:17.149Z,428.15
2018-08-23T03:16:19.152Z,432.68
2018-08-23T03:18:21.154Z,424.60
2018-08-23T03:20:23.159Z,427.20
2018-08-23T03:22:25.166Z,422.43
2018-08-23T03:24:27.198Z,418.33
2018-08-23T03:26:29.218Z,421.63
2018-08-23T03:28:31.218Z,427.88
2018-08-23T03:30:33.214Z,415.05
2018-08-23T03:32:35.192Z,410.10
2018-08-23T03:34:37.202Z,420.90
2018-08-23T03:36:39.178Z,412.08
2018-08-23T03:38:41.196Z,412.57
2018-08-23T03:40:43.181Z,411.68
2018-08-23T03:42:45.210Z,406.82
2018-08-23T03:44:47.211Z,416.10
2018-08-23T03:46:49.290Z,400.38
2018-08-23T03:48:51.292Z,405.98
2018-08-23T03:50:53.270Z,400.60
2018-08-23T03:52:55.284Z,398.68
2018-08-23T03:54:57.314Z,400.68
2018-08-23T03:56:59.298Z,409.13
2018-08-23T03:59:01.375Z,396.95
2018-08-23T04:01:03.344Z,400.48
2018-08-23T04:03:05.360Z,397.67
2018-08-23T04:05:07.336Z,390.60
2018-08-23T04:07:09.356Z,394.93
2018-08-23T04:09:11.360Z,388.12
2018-08-23T04:11:13.342Z,386.62
2018-08-23T04:13:15.370Z,387.17
2018-08-23T04:15:17.405Z,389.77
2018-08-23T04:17:19.636Z,380.27
2018-08-23T04:19:21.625Z,382.68
2018-08-23T04:21:23.633Z,377.70
2018-08-23T04:23:25.627Z,386.25
2018-08-23T04:25:27.604Z,379.05
2018-08-23T04:27:29.628Z,372.75
2018-08-23T04:29:31.683Z,368.50
2018-08-23T04:31:33.677Z,371.73
2018-08-23T04:33:35.705Z,359.85
2018-08-23T04:35:37.671Z,366.30
2018-08-23T04:37:39.663Z,358.32
2018-08-23T04:39:41.693Z,355.85
2018-08-23T04:41:43.677Z,355.27
2018-08-23T04:43:45.660Z,352.85
2018-08-23T04:45:47.694Z,345.37
2018-08-23T04:47:50.054Z,347.65
2018-08-23T04:49:52.026Z,349.98
2018-08-23T04:51:54.048Z,355.57
2018-08-23T04:53:56.037Z,337.17
2018-08-23T04:55:58.040Z,331.60
2018-08-23T04:58:00.054Z,327.50
2018-08-23T05:00:02.038Z,337.10
2018-08-23T05:02:04.030Z,335.65
2018-08-23T05:04:06.112Z,334.12
2018-08-23T05:06:08.292Z,323.60
2018-08-23T05:08:10.304Z,331.77
2018-08-23T05:10:12.286Z,325.48
2018-08-23T05:12:14.315Z,319.77
2018-08-23T05:14:16.326Z,319.13
2018-08-23T05:16:18.336Z,318.40
2018-08-23T05:18:20.374Z,325.43
2018-08-23T05:20:22.343Z,318.80
2018-08-23T05:22:24.347Z,321.15
2018-08-23T05:24:26.365Z,317.73
2018-08-23T05:26:28.341Z,311.12
2018-08-23T05:28:30.355Z,313.70
2018-08-23T05:30:32.348Z,317.37
2018-08-23T05:32:34.365Z,308.47
2018-08-23T05:34:36.374Z,311.32
2018-08-23T05:36:38.372Z,309.10
2018-08-23T05:38:40.401Z,291.73
2018-08-23T05:40:42.386Z,296.32
2018-08-23T05:42:44.379Z,304.00
2018-08-23T05:44:46.413Z,291.65
2018-08-23T05:46:48.404Z,292.85
2018-08-23T05:48:50.393Z,297.30
2018-08-23T05:50:52.431Z,296.37
2018-08-23T05:52:54.485Z,293.07
2018-08-23T05:54:56.523Z,297.98
2018-08-23T05:56:58.524Z,315.85
2018-08-23T05:59:00.501Z,333.15
2018-08-23T06:01:02.521Z,354.50
2018-08-23T06:03:04.545Z,674.73
2018-08-23T06:05:06.531Z,462.35
2018-08-23T06:07:08.665Z,453.27
2018-08-23T06:09:10.681Z,477.30
2018-08-23T06:11:12.699Z,507.73
2018-08-23T06:13:14.689Z,458.35
2018-08-23T06:15:16.711Z,414.90
2018-08-23T06:17:18.741Z,432.88
2018-08-23T06:19:20.773Z,275.25
2018-08-23T06:21:22.769Z,151.90
2018-08-23T06:23:24.777Z,118.45
2018-08-23T06:25:26.769Z,101.18
2018-08-23T06:27:28.882Z,89.47
2018-08-23T06:29:30.753Z,71.80
2018-08-23T06:31:32.725Z,79.55
2018-08-23T06:33:34.922Z,71.53
2018-08-23T06:35:36.987Z,74.55
2018-08-23T06:37:38.973Z,69.45
2018-08-23T06:39:40.960Z,64.20
2018-08-23T06:41:42.966Z,80.55
2018-08-23T06:43:44.971Z,89.70
2018-08-23T06:45:46.998Z,83.35
2018-08-23T06:47:48.965Z,82.72
2018-08-23T06:49:50.995Z,72.58
2018-08-23T06:51:52.967Z,64.10
2018-08-23T06:53:54.999Z,47.83
2018-08-23T06:55:57.001Z,62.43
2018-08-23T06:57:59.014Z,53.33
2018-08-23T07:00:01.026Z,56.15
2018-08-23T07:02:03.028Z,53.90
2018-08-23T07:04:05.035Z,63.63
2018-08-23T07:06:07.033Z,57.03
2018-08-23T07:08:09.035Z,50.48
2018-08-23T07:10:11.035Z,75.25
2018-08-23T07:12:13.049Z,92.50
2018-08-23T07:14:15.056Z,79.62
2018-08-23T07:16:17.073Z,56.95
2018-08-23T07:18:19.093Z,53.78
2018-08-23T07:20:21.087Z,47.80
2018-08-23T07:22:23.089Z,50.20
2018-08-23T07:24:25.071Z,47.60
2018-08-23T07:26:27.113Z,42.70
2018-08-23T07:28:29.147Z,52.80
2018-08-23T07:30:31.170Z,36.68
2018-08-23T07:32:33.158Z,47.48
2018-08-23T07:34:35.185Z,45.52
2018-08-23T07:36:37.571Z,48.40
2018-08-23T07:38:39.582Z,38.35
2018-08-23T07:40:41.570Z,47.17
2018-08-23T07:42:43.586Z,46.73
2018-08-23T07:44:45.593Z,67.03
2018-08-23T07:46:47.585Z,49.90
2018-08-23T07:48:49.555Z,50.63
2018-08-23T07:50:51.570Z,63.68
2018-08-23T07:52:53.664Z,51.13
2018-08-23T07:54:55.920Z,70.28
2018-08-23T07:56:57.923Z,43.05
2018-08-23T07:58:59.901Z,40.55
2018-08-23T08:01:01.926Z,57.03
2018-08-23T08:03:03.913Z,50.75
2018-08-23T08:05:05.947Z,42.45
2018-08-23T08:07:08.186Z,69.55
2018-08-23T08:09:10.189Z,84.75
2018-08-23T08:11:12.194Z,55.35
2018-08-23T08:13:14.190Z,65.65
2018-08-23T08:15:16.273Z,53.28
2018-08-23T08:17:18.191Z,62.10
2018-08-23T08:19:20.174Z,35.90
2018-08-23T08:21:22.177Z,42.53
2018-08-23T08:23:24.188Z,50.55
2018-08-23T08:25:26.192Z,34.95
2018-08-23T08:27:28.203Z,41.95
2018-08-23T08:29:30.220Z,33.48
2018-08-23T08:31:32.204Z,70.40
2018-08-23T08:33:34.168Z,88.07
2018-08-23T08:35:36.183Z,54.95
2018-08-23T08:37:38.213Z,58.65
2018-08-23T08:39:40.262Z,57.90
2018-08-23T08:41:42.243Z,77.87
2018-08-23T08:43:44.259Z,90.53
2018-08-23T08:45:46.245Z,94.83
2018-08-23T08:47:48.280Z,91.02
2018-08-23T08:49:50.317Z,152.53
2018-08-23T08:51:52.345Z,82.80
2018-08-23T08:53:54.372Z,181.15
2018-08-23T08:55:56.366Z,125.00
2018-08-23T08:57:58.391Z,123.55
2018-08-23T09:00:00.411Z,111.95
2018-08-23T09:02:02.393Z,107.10
2018-08-23T09:04:04.416Z,93.78
2018-08-23T09:06:06.392Z,58.95
2018-08-23T09:08:08.363Z,70.78
2018-08-23T09:10:10.398Z,63.78
2018-08-23T09:12:12.398Z,234.40
2018-08-23T09:14:14.421Z,215.77
2018-08-23T09:16:16.395Z,285.75
2018-08-23T09:18:18.422Z,261.40
2018-08-23T09:20:20.440Z,308.43
2018-08-23T09:22:22.862Z,272.23
2018-08-23T09:24:24.848Z,234.22
2018-08-23T09:26:26.860Z,192.40
2018-08-23T09:28:28.847Z,204.87
2018-08-23T09:30:30.845Z,240.72
2018-08-23T09:32:32.912Z,201.92
2018-08-23T09:34:34.869Z,276.48
2018-08-23T09:36:36.880Z,279.40
2018-08-23T09:38:38.869Z,275.15
2018-08-23T09:40:40.904Z,218.95
2018-08-23T09:42:42.873Z,175.87
2018-08-23T09:44:44.852Z,215.55
2018-08-23T09:46:46.881Z,220.48
2018-08-23T09:48:48.856Z,249.70
2018-08-23T09:50:50.997Z,259.40
2018-08-23T09:52:52.954Z,251.73
2018-08-23T09:54:54.934Z,234.47
2018-08-23T09:56:56.967Z,251.92
2018-08-23T09:58:59.046Z,254.13
2018-08-23T10:01:01.001Z,286.92
2018-08-23T10:03:02.993Z,309.27
2018-08-23T10:05:05.014Z,117.15
2018-08-23T10:07:07.054Z,261.55
2018-08-23T10:09:09.042Z,260.05
2018-08-23T10:11:11.054Z,81.90
2018-08-23T10:13:13.022Z,138.20
2018-08-23T10:15:15.048Z,159.52
2018-08-23T10:17:17.032Z,141.92
2018-08-23T10:19:19.076Z,170.72
2018-08-23T10:21:21.058Z,118.05
2018-08-23T10:23:23.078Z,99.15
2018-08-23T10:25:25.054Z,154.35
2018-08-23T10:27:27.063Z,166.15
2018-08-23T10:29:29.093Z,102.35
2018-08-23T10:31:31.082Z,108.92
2018-08-23T10:33:33.102Z,104.78
2018-08-23T10:35:35.082Z,100.92
2018-08-23T10:37:37.069Z,102.60
2018-08-23T10:39:39.105Z,95.20
2018-08-23T10:41:41.133Z,90.45
2018-08-23T10:43:43.115Z,101.15
2018-08-23T10:45:45.107Z,106.55
2018-08-23T10:47:47.127Z,119.25
2018-08-23T10:49:49.125Z,60.30
2018-08-23T10:51:51.125Z,67.78
2018-08-23T10:53:53.173Z,66.25
2018-08-23T10:55:55.187Z,68.75
2018-08-23T10:57:57.227Z,93.90
2018-08-23T10:59:59.244Z,87.27
2018-08-23T11:02:01.220Z,85.60
2018-08-23T11:04:03.185Z,82.08
2018-08-23T11:06:05.234Z,75.20
2018-08-23T11:08:07.209Z,55.08
2018-08-23T11:10:09.179Z,58.42
2018-08-23T11:12:11.199Z,44.88
2018-08-23T11:14:13.593Z,45.03
2018-08-23T11:16:15.849Z,39.95
2018-08-23T11:18:18.115Z,29.87
2018-08-23T11:20:20.383Z,39.85
2018-08-23T11:22:22.640Z,29.50
2018-08-23T11:24:24.936Z,30.23
2018-08-23T11:26:27.224Z,34.05
2018-08-23T11:28:29.566Z,33.83
2018-08-23T11:30:31.843Z,26.33
2018-08-23T11:32:34.116Z,42.03
2018-08-23T11:34:36.417Z,118.57
2018-08-23T11:36:38.675Z,129.57
2018-08-23T11:38:40.930Z,106.07
2018-08-23T11:40:43.185Z,108.97
2018-08-23T11:42:45.477Z,112.83
2018-08-23T11:44:47.769Z,99.60
2018-08-23T11:46:50.009Z,95.92
2018-08-23T11:48:52.280Z,92.42
2018-08-23T11:50:54.561Z,77.05
2018-08-23T11:52:56.904Z,72.65
2018-08-23T11:54:59.119Z,68.20
2018-08-23T11:57:01.373Z,58.35
2018-08-23T11:59:03.730Z,59.58
2018-08-23T12:01:05.945Z,88.50
2018-08-23T12:03:08.226Z,69.80
2018-08-23T12:05:10.475Z,77.47
2018-08-23T12:07:12.741Z,91.10
2018-08-23T12:09:15.021Z,77.80
2018-08-23T12:11:17.257Z,109.70
2018-08-23T12:13:19.542Z,102.62
2018-08-23T12:15:21.829Z,112.55
2018-08-23T12:17:24.099Z,90.15
2018-08-23T12:19:27.267Z,106.07
2018-08-23T12:21:29.553Z,116.05
2018-08-23T12:23:31.806Z,106.52
2018-08-23T12:25:34.059Z,102.62
2018-08-23T12:27:36.335Z,89.13
2018-08-23T12:29:38.674Z,213.82
2018-08-23T12:31:40.948Z,301.35
2018-08-23T12:33:43.188Z,208.15
2018-08-23T12:35:45.437Z,169.68
2018-08-23T12:37:47.681Z,143.60
2018-08-23T12:39:49.969Z,117.37
2018-08-23T12:41:52.242Z,114.80
2018-08-23T12:43:54.513Z,104.38
2018-08-23T12:45:56.748Z,97.62
2018-08-23T12:47:59.029Z,101.38
2018-08-23T12:50:01.327Z,78.57
2018-08-23T12:52:03.572Z,88.95
2018-08-23T12:54:05.871Z,76.50
2018-08-23T12:56:08.171Z,72.47
2018-08-23T12:58:10.415Z,68.87
2018-08-23T13:00:12.709Z,55.17
2018-08-23T13:02:15.013Z,57.40
2018-08-23T13:04:17.769Z,58.98
2018-08-23T13:06:20.083Z,84.07
2018-08-23T13:08:22.391Z,273.38
2018-08-23T13:10:24.616Z,234.45
2018-08-23T13:12:26.880Z,206.17
2018-08-23T13:14:29.148Z,172.68
2018-08-23T13:16:31.399Z,170.07
2018-08-23T13:18:33.631Z,104.25
2018-08-23T13:20:35.953Z,118.93
2018-08-23T13:22:38.250Z,115.00
2018-08-23T13:24:40.538Z,106.85
2018-08-23T13:26:42.807Z,115.05
2018-08-23T13:28:45.103Z,255.05
2018-08-23T13:30:47.370Z,265.60
2018-08-23T13:32:49.639Z,224.15
2018-08-23T13:34:51.959Z,173.17
2018-08-23T13:36:54.259Z,155.72
2018-08-23T13:38:56.443Z,103.15
2018-08-23T13:40:58.736Z,116.10
2018-08-23T13:43:00.969Z,123.97
2018-08-23T13:45:03.261Z,105.85
2018-08-23T13:47:05.504Z,107.12
2018-08-23T13:49:07.802Z,97.67
2018-08-23T13:51:10.042Z,91.42
2018-08-23T13:53:12.291Z,97.42
2018-08-23T13:55:14.593Z,160.43
2018-08-23T13:57:16.853Z,223.65
2018-08-23T13:59:19.122Z,186.12
2018-08-23T14:01:21.414Z,188.95
2018-08-23T14:03:23.663Z,143.72
2018-08-23T14:05:25.959Z,124.58
2018-08-23T14:07:28.234Z,132.50
2018-08-23T14:09:30.458Z,248.43
2018-08-23T14:11:32.744Z,178.53
2018-08-23T14:13:34.975Z,146.72
2018-08-23T14:15:37.269Z,151.37
2018-08-23T14:17:39.501Z,134.47
2018-08-23T14:19:41.853Z,115.32
2018-08-23T14:21:44.088Z,107.87
2018-08-23T14:23:46.374Z,98.03
2018-08-23T14:25:48.652Z,96.10
2018-08-23T14:27:50.894Z,96.67
2018-08-23T14:29:53.143Z,124.07
2018-08-23T14:31:55.420Z,165.52
2018-08-23T14:33:57.706Z,192.72
2018-08-23T14:35:59.954Z,212.72
2018-08-23T14:38:02.208Z,217.95
2018-08-23T14:40:04.544Z,208.32
2018-08-23T14:42:06.816Z,214.10
2018-08-23T14:44:09.082Z,199.38
2018-08-23T14:46:11.314Z,195.25
2018-08-23T14:48:13.602Z,193.17
2018-08-23T14:50:15.856Z,167.05
2018-08-23T14:52:18.090Z,183.85
2018-08-23T14:54:20.368Z,242.40
2018-08-23T14:56:22.652Z,275.57
2018-08-23T14:58:24.930Z,236.80
2018-08-23T15:00:27.184Z,214.88
2018-08-23T15:02:29.440Z,215.97
2018-08-23T15:04:32.153Z,210.82
2018-08-23T15:06:34.417Z,189.13
2018-08-23T15:08:36.658Z,202.68
2018-08-23T15:10:38.961Z,231.00
2018-08-23T15:12:41.242Z,286.45
2018-08-23T15:14:43.513Z,316.38
2018-08-23T15:16:45.789Z,297.42
2018-08-23T15:18:48.097Z,331.17
2018-08-23T15:20:50.474Z,331.50
2018-08-23T15:22:53.137Z,288.07
2018-08-23T15:24:55.756Z,273.60
2018-08-23T15:26:58.167Z,269.13
2018-08-23T15:29:00.363Z,180.18
2018-08-23T15:31:02.611Z,157.47
2018-08-23T15:33:04.971Z,162.22
2018-08-23T15:35:07.186Z,163.10
2018-08-23T15:37:09.466Z,139.90
2018-08-23T15:39:11.714Z,124.80
2018-08-23T15:41:13.948Z,102.92
2018-08-23T15:43:16.222Z,110.95
2018-08-23T15:45:18.510Z,102.47
2018-08-23T15:47:20.775Z,71.28
2018-08-23T15:49:23.034Z,80.75
2018-08-23T15:51:25.351Z,80.47
2018-08-23T15:53:27.624Z,86.55
2018-08-23T15:55:30.059Z,92.72
2018-08-23T15:57:32.128Z,76.82
2018-08-23T15:59:34.398Z,75.72
2018-08-23T16:01:36.644Z,76.92
2018-08-23T16:03:38.956Z,78.25
2018-08-23T16:05:41.196Z,68.85
2018-08-23T16:07:43.470Z,70.57
2018-08-23T16:09:45.738Z,65.97
2018-08-23T16:11:48.009Z,53.83
2018-08-23T16:13:50.256Z,55.45
2018-08-23T16:15:52.595Z,55.52
2018-08-23T16:17:54.777Z,53.52
2018-08-23T16:19:57.038Z,55.05
2018-08-23T16:21:59.338Z,45.28
2018-08-23T16:24:01.590Z,47.93
2018-08-23T16:26:03.956Z,40.88
2018-08-23T16:28:06.209Z,45.52
2018-08-23T16:30:08.494Z,44.63
2018-08-23T16:32:10.828Z,38.98
2018-08-23T16:34:13.002Z,39.92
2018-08-23T16:36:15.279Z,42.95
2018-08-23T16:38:17.560Z,34.38
2018-08-23T16:40:19.814Z,39.90
2018-08-23T16:42:22.094Z,35.90
2018-08-23T16:44:24.339Z,35.75
2018-08-23T16:46:26.616Z,34.83
2018-08-23T16:48:28.899Z,34.10
2018-08-23T16:50:31.181Z,33.15
2018-08-23T16:52:33.474Z,28.55
2018-08-23T16:54:35.731Z,30.95
2018-08-23T16:56:39.629Z,31.75
2018-08-23T16:58:42.331Z,28.10
2018-08-23T17:00:44.513Z,31.07
2018-08-23T17:02:46.792Z,27.22
2018-08-23T17:04:49.087Z,26.15
2018-08-23T17:06:51.345Z,27.07
2018-08-23T17:08:53.577Z,25.80
2018-08-23T17:10:55.874Z,22.35
2018-08-23T17:12:58.146Z,21.70
2018-08-23T17:15:00.441Z,25.72
2018-08-23T17:17:02.723Z,23.40
2018-08-23T17:19:04.991Z,22.22
2018-08-23T17:21:07.263Z,24.85
2018-08-23T17:23:09.542Z,24.43
2018-08-23T17:25:11.811Z,23.77
2018-08-23T17:27:14.077Z,20.00
2018-08-23T17:29:16.330Z,21.10
2018-08-23T17:31:18.607Z,23.10
2018-08-23T17:33:20.909Z,23.25
2018-08-23T17:35:23.183Z,21.97
2018-08-23T17:37:25.431Z,22.27
2018-08-23T17:39:27.677Z,21.85
2018-08-23T17:41:29.969Z,19.55
2018-08-23T17:43:32.235Z,22.27
2018-08-23T17:45:34.525Z,19.62
2018-08-23T17:47:36.773Z,21.40
2018-08-23T17:49:39.029Z,20.55
2018-08-23T17:51:41.347Z,19.20
2018-08-23T17:53:43.580Z,21.82
2018-08-23T17:55:45.906Z,18.98
2018-08-23T17:57:48.105Z,19.02
2018-08-23T17:59:50.391Z,20.82
2018-08-23T18:01:52.701Z,19.70
2018-08-23T18:03:54.958Z,19.85
2018-08-23T18:05:57.193Z,16.50
2018-08-23T18:07:59.490Z,19.65
2018-08-23T18:10:01.738Z,19.00
2018-08-23T18:12:04.037Z,17.87
2018-08-23T18:14:06.297Z,18.37
2018-08-23T18:16:08.523Z,16.90
2018-08-23T18:18:10.814Z,17.87
2018-08-23T18:20:13.072Z,17.35
2018-08-23T18:22:15.347Z,17.80
2018-08-23T18:24:17.634Z,15.48
2018-08-23T18:26:19.919Z,17.80
2018-08-23T18:28:22.238Z,15.75
2018-08-23T18:30:24.498Z,16.50
2018-08-23T18:32:26.817Z,16.97
2018-08-23T18:34:29.046Z,14.18
2018-08-23T18:36:31.274Z,14.00
2018-08-23T18:38:33.575Z,13.40
2018-08-23T18:40:35.858Z,13.75
2018-08-23T18:42:38.172Z,13.43
2018-08-23T18:44:40.426Z,13.65
2018-08-23T18:46:42.714Z,13.55
2018-08-23T18:48:44.957Z,14.23
2018-08-23T18:50:47.228Z,13.15
2018-08-23T18:52:49.521Z,13.62
2018-08-23T18:54:51.780Z,12.15
2018-08-23T18:56:54.048Z,12.05
2018-08-23T18:58:56.334Z,12.78
2018-08-23T19:00:58.568Z,12.95
2018-08-23T19:03:00.881Z,11.93
2018-08-23T19:05:03.128Z,11.30
2018-08-23T19:07:05.395Z,11.45
2018-08-23T19:09:07.656Z,11.15
2018-08-23T19:11:09.910Z,11.63
2018-08-23T19:13:12.258Z,10.93
2018-08-23T19:15:14.430Z,10.58
2018-08-23T19:17:16.723Z,11.48
2018-08-23T19:19:19.006Z,11.68
2018-08-23T19:21:21.303Z,11.38
2018-08-23T19:23:23.550Z,10.75
2018-08-23T19:25:25.821Z,10.80
2018-08-23T19:27:28.095Z,10.63
2018-08-23T19:29:30.360Z,12.50
2018-08-23T19:31:32.740Z,11.43
2018-08-23T19:33:34.945Z,10.55
2018-08-23T19:35:37.200Z,10.35
2018-08-23T19:37:39.461Z,10.72
2018-08-23T19:39:41.717Z,10.13
2018-08-23T19:41:44.004Z,11.83
2018-08-23T19:43:46.249Z,11.60
2018-08-23T19:45:48.490Z,30.40
2018-08-23T19:47:50.771Z,92.55
2018-08-23T19:49:53.037Z,71.20
2018-08-23T19:51:55.328Z,156.43
2018-08-23T19:53:57.648Z,142.55
2018-08-23T19:55:59.866Z,126.58
2018-08-23T19:58:02.152Z,86.78
2018-08-23T20:00:04.453Z,96.92
2018-08-23T20:02:06.699Z,93.40
2018-08-23T20:04:08.938Z,93.80
2018-08-23T20:06:11.251Z,88.92
2018-08-23T20:08:13.503Z,89.70
2018-08-23T20:10:15.793Z,84.00
2018-08-23T20:12:18.112Z,90.50
2018-08-23T20:14:20.272Z,88.27
2018-08-23T20:16:22.561Z,83.97
2018-08-23T20:18:24.841Z,84.85
2018-08-23T20:20:27.087Z,77.67
2018-08-23T20:22:29.340Z,78.50
2018-08-23T20:24:31.630Z,73.20
2018-08-23T20:26:33.881Z,88.60
2018-08-23T20:28:36.174Z,158.00
2018-08-23T20:30:38.457Z,159.07
2018-08-23T20:32:40.719Z,186.70
2018-08-23T20:34:42.963Z,195.60
2018-08-23T20:36:45.263Z,207.98
2018-08-23T20:38:47.521Z,200.40
2018-08-23T20:40:49.812Z,257.43
2018-08-23T20:42:52.065Z,302.52
2018-08-23T20:44:54.316Z,348.68
2018-08-23T20:46:56.624Z,304.57
2018-08-23T20:48:58.840Z,324.45
2018-08-23T20:51:01.089Z,318.07
2018-08-23T20:53:03.396Z,314.10
2018-08-23T20:55:05.685Z,342.80
2018-08-23T20:57:07.939Z,382.43
2018-08-23T20:59:10.197Z,368.65
2018-08-23T21:01:12.468Z,379.60
2018-08-23T21:03:14.772Z,385.75
2018-08-23T21:05:17.064Z,367.00
2018-08-23T21:07:19.414Z,385.73
2018-08-23T21:09:21.711Z,399.85
2018-08-23T21:11:24.006Z,439.23
2018-08-23T21:13:26.332Z,448.50
2018-08-23T21:15:28.582Z,397.72
2018-08-23T21:17:30.833Z,423.95
2018-08-23T21:19:33.127Z,430.65
2018-08-23T21:21:35.379Z,468.87
2018-08-23T21:23:37.671Z,454.92
2018-08-23T21:25:39.979Z,440.20
2018-08-23T21:27:42.274Z,421.33
2018-08-23T21:29:44.536Z,402.55
2018-08-23T21:31:46.839Z,402.17
2018-08-23T21:33:49.121Z,399.73
2018-08-23T21:35:51.365Z,389.85
2018-08-23T21:37:53.671Z,384.43
2018-08-23T21:39:55.959Z,372.88
2018-08-23T21:41:58.233Z,385.05
2018-08-23T21:44:00.471Z,377.95
2018-08-23T21:46:02.763Z,379.57
2018-08-23T21:48:05.025Z,363.98
2018-08-23T21:50:07.269Z,352.98
2018-08-23T21:52:09.524Z,350.30
2018-08-23T21:54:11.822Z,353.40
2018-08-23T21:56:14.067Z,350.55
2018-08-23T21:58:16.314Z,351.12
2018-08-23T22:00:18.589Z,331.90
2018-08-23T22:02:20.907Z,314.50
2018-08-23T22:04:23.181Z,329.43
2018-08-23T22:06:25.472Z,308.45
2018-08-23T22:08:27.713Z,313.90
2018-08-23T22:10:29.985Z,301.15
2018-08-23T22:12:32.262Z,305.90
2018-08-23T22:14:34.521Z,294.82
2018-08-23T22:16:36.801Z,285.45
2018-08-23T22:18:39.099Z,284.15
2018-08-23T22:20:41.344Z,281.23
2018-08-23T22:22:43.618Z,272.25
2018-08-23T22:24:45.896Z,269.45
2018-08-23T22:26:48.297Z,273.52
2018-08-23T22:28:50.455Z,259.20
2018-08-23T22:30:52.721Z,264.10
2018-08-23T22:32:54.980Z,251.30
2018-08-23T22:34:57.264Z,252.85
2018-08-23T22:36:59.513Z,249.18
2018-08-23T22:39:01.756Z,246.35
2018-08-23T22:41:04.064Z,225.68
2018-08-23T22:43:06.321Z,227.07
2018-08-23T22:45:08.565Z,226.77
2018-08-23T22:47:10.868Z,226.65
2018-08-23T22:49:13.141Z,216.90
2018-08-23T22:51:15.401Z,218.50
2018-08-23T22:53:17.679Z,214.85
2018-08-23T22:55:19.918Z,216.57
2018-08-23T22:57:22.162Z,216.15
2018-08-23T22:59:24.448Z,195.97
2018-08-23T23:01:26.696Z,196.60
2018-08-23T23:03:28.966Z,190.53
2018-08-23T23:05:31.253Z,194.47
2018-08-23T23:07:33.505Z,180.42
2018-08-23T23:09:35.804Z,181.87
2018-08-23T23:11:38.123Z,180.95
2018-08-23T23:13:40.287Z,169.35
2018-08-23T23:15:42.586Z,167.35
2018-08-23T23:17:44.892Z,169.45
2018-08-23T23:19:47.129Z,170.20
2018-08-23T23:21:49.389Z,166.80
2018-08-23T23:23:51.692Z,160.45
2018-08-23T23:25:53.945Z,161.77
2018-08-23T23:27:56.242Z,151.55
2018-08-23T23:29:58.499Z,156.80
2018-08-23T23:32:00.789Z,154.23
2018-08-23T23:34:03.024Z,150.03
2018-08-23T23:36:05.327Z,152.12
2018-08-23T23:38:07.573Z,145.53
2018-08-23T23:40:09.841Z,149.47
2018-08-23T23:42:12.137Z,146.90
2018-08-23T23:44:14.437Z,143.32
2018-08-23T23:46:16.727Z,139.20
2018-08-23T23:48:18.989Z,128.97
2018-08-23T23:50:21.243Z,135.10
2018-08-23T23:52:23.529Z,124.55
2018-08-23T23:54:25.799Z,131.07
2018-08-23T23:56:28.192Z,117.50
2018-08-23T23:58:30.384Z,121.40
